sensor_id;sensor_type;location;lat;lon;timestamp;P1;durP1;ratioP1;P2;durP2;ratioP2
25015;SDS011;13029;46.286;7.488;2023-05-23T00:00:12;4.88;;;4.00;;
25015;SDS011;13029;46.286;7.488;2023-05-23T00:02:38;5.30;;;3.80;;
25015;SDS011;13029;46.286;7.488;2023-05-23T00:05:03;4.97;;;4.10;;
25015;SDS011;13029;46.286;7.488;2023-05-23T00:07:31;4.93;;;3.83;;
25015;SDS011;13029;46.286;7.488;2023-05-23T00:09:56;4.68;;;3.85;;
25015;SDS011;13029;46.286;7.488;2023-05-23T00:12:22;6.30;;;3.85;;
25015;SDS011;13029;46.286;7.488;2023-05-23T00:14:47;7.38;;;4.43;;
25015;SDS011;13029;46.286;7.488;2023-05-23T00:17:12;4.05;;;3.40;;
25015;SDS011;13029;46.286;7.488;2023-05-23T00:19:38;4.35;;;3.95;;
25015;SDS011;13029;46.286;7.488;2023-05-23T00:22:03;4.45;;;4.05;;
25015;SDS011;13029;46.286;7.488;2023-05-23T00:24:29;5.30;;;3.92;;
25015;SDS011;13029;46.286;7.488;2023-05-23T00:26:54;6.90;;;4.05;;
25015;SDS011;13029;46.286;7.488;2023-05-23T00:29:20;4.45;;;4.05;;
25015;SDS011;13029;46.286;7.488;2023-05-23T00:31:45;7.25;;;4.28;;
25015;SDS011;13029;46.286;7.488;2023-05-23T00:34:14;5.63;;;4.20;;
25015;SDS011;13029;46.286;7.488;2023-05-23T00:36:41;6.25;;;3.60;;
25015;SDS011;13029;46.286;7.488;2023-05-23T00:39:07;5.80;;;4.15;;
25015;SDS011;13029;46.286;7.488;2023-05-23T00:41:33;7.30;;;3.72;;
25015;SDS011;13029;46.286;7.488;2023-05-23T00:43:58;7.00;;;4.03;;
25015;SDS011;13029;46.286;7.488;2023-05-23T00:46:24;5.05;;;4.18;;
25015;SDS011;13029;46.286;7.488;2023-05-23T00:48:50;7.05;;;4.97;;
25015;SDS011;13029;46.286;7.488;2023-05-23T00:51:16;6.78;;;4.07;;
25015;SDS011;13029;46.286;7.488;2023-05-23T00:53:41;5.07;;;3.65;;
25015;SDS011;13029;46.286;7.488;2023-05-23T00:56:07;5.45;;;4.10;;
25015;SDS011;13029;46.286;7.488;2023-05-23T00:58:33;6.03;;;3.97;;
25015;SDS011;13029;46.286;7.488;2023-05-23T01:00:58;7.05;;;4.40;;
25015;SDS011;13029;46.286;7.488;2023-05-23T01:03:23;5.97;;;3.83;;
25015;SDS011;13029;46.286;7.488;2023-05-23T01:05:52;5.63;;;3.80;;
25015;SDS011;13029;46.286;7.488;2023-05-23T01:08:19;7.70;;;4.18;;
25015;SDS011;13029;46.286;7.488;2023-05-23T01:10:45;4.85;;;4.18;;
25015;SDS011;13029;46.286;7.488;2023-05-23T01:16:12;5.22;;;3.95;;
25015;SDS011;13029;46.286;7.488;2023-05-23T01:18:42;9.50;;;4.50;;
25015;SDS011;13029;46.286;7.488;2023-05-23T01:21:18;5.65;;;3.95;;
25015;SDS011;13029;46.286;7.488;2023-05-23T01:23:59;5.28;;;3.72;;
25015;SDS011;13029;46.286;7.488;2023-05-23T01:27:04;4.70;;;3.95;;
25015;SDS011;13029;46.286;7.488;2023-05-23T01:29:37;6.75;;;4.25;;
25015;SDS011;13029;46.286;7.488;2023-05-23T01:32:06;8.73;;;4.20;;
25015;SDS011;13029;46.286;7.488;2023-05-23T01:34:34;6.60;;;4.38;;
25015;SDS011;13029;46.286;7.488;2023-05-23T01:36:59;4.90;;;4.13;;
25015;SDS011;13029;46.286;7.488;2023-05-23T01:39:24;6.45;;;4.40;;
25015;SDS011;13029;46.286;7.488;2023-05-23T01:41:50;5.65;;;3.95;;
25015;SDS011;13029;46.286;7.488;2023-05-23T01:44:16;4.07;;;3.55;;
25015;SDS011;13029;46.286;7.488;2023-05-23T01:46:42;5.38;;;4.38;;
25015;SDS011;13029;46.286;7.488;2023-05-23T01:49:08;4.70;;;3.85;;
25015;SDS011;13029;46.286;7.488;2023-05-23T01:51:36;5.30;;;4.00;;
25015;SDS011;13029;46.286;7.488;2023-05-23T01:54:01;7.28;;;4.05;;
25015;SDS011;13029;46.286;7.488;2023-05-23T01:56:27;5.85;;;4.05;;
25015;SDS011;13029;46.286;7.488;2023-05-23T01:58:52;6.07;;;3.88;;
25015;SDS011;13029;46.286;7.488;2023-05-23T02:01:18;9.05;;;4.15;;
25015;SDS011;13029;46.286;7.488;2023-05-23T02:03:43;6.03;;;4.35;;
25015;SDS011;13029;46.286;7.488;2023-05-23T02:06:09;7.90;;;4.50;;
25015;SDS011;13029;46.286;7.488;2023-05-23T02:08:34;4.55;;;3.95;;
25015;SDS011;13029;46.286;7.488;2023-05-23T02:11:00;5.00;;;4.13;;
25015;SDS011;13029;46.286;7.488;2023-05-23T02:13:25;5.95;;;4.03;;
25015;SDS011;13029;46.286;7.488;2023-05-23T02:15:50;5.90;;;4.50;;
25015;SDS011;13029;46.286;7.488;2023-05-23T02:18:15;6.22;;;4.18;;
25015;SDS011;13029;46.286;7.488;2023-05-23T02:20:42;6.60;;;4.30;;
25015;SDS011;13029;46.286;7.488;2023-05-23T02:23:07;6.78;;;4.55;;
25015;SDS011;13029;46.286;7.488;2023-05-23T02:25:32;5.50;;;4.30;;
25015;SDS011;13029;46.286;7.488;2023-05-23T02:27:58;5.28;;;4.00;;
25015;SDS011;13029;46.286;7.488;2023-05-23T02:30:23;6.13;;;3.97;;
25015;SDS011;13029;46.286;7.488;2023-05-23T02:32:48;7.07;;;4.47;;
25015;SDS011;13029;46.286;7.488;2023-05-23T02:35:14;4.43;;;3.90;;
25015;SDS011;13029;46.286;7.488;2023-05-23T02:37:39;7.18;;;4.90;;
25015;SDS011;13029;46.286;7.488;2023-05-23T02:40:04;11.07;;;4.22;;
25015;SDS011;13029;46.286;7.488;2023-05-23T02:42:31;5.35;;;4.40;;
25015;SDS011;13029;46.286;7.488;2023-05-23T02:44:57;6.35;;;4.40;;
25015;SDS011;13029;46.286;7.488;2023-05-23T02:47:22;4.22;;;3.83;;
25015;SDS011;13029;46.286;7.488;2023-05-23T02:49:48;5.10;;;4.18;;
25015;SDS011;13029;46.286;7.488;2023-05-23T02:52:13;6.20;;;4.07;;
25015;SDS011;13029;46.286;7.488;2023-05-23T02:54:38;5.10;;;4.35;;
25015;SDS011;13029;46.286;7.488;2023-05-23T02:57:04;7.00;;;4.15;;
25015;SDS011;13029;46.286;7.488;2023-05-23T02:59:30;4.85;;;4.20;;
25015;SDS011;13029;46.286;7.488;2023-05-23T03:01:55;4.57;;;3.80;;
25015;SDS011;13029;46.286;7.488;2023-05-23T03:04:21;4.53;;;4.13;;
25015;SDS011;13029;46.286;7.488;2023-05-23T03:06:46;5.72;;;4.22;;
25015;SDS011;13029;46.286;7.488;2023-05-23T03:09:13;5.25;;;4.40;;
25015;SDS011;13029;46.286;7.488;2023-05-23T03:11:40;4.63;;;4.03;;
25015;SDS011;13029;46.286;7.488;2023-05-23T03:14:06;10.52;;;4.50;;
25015;SDS011;13029;46.286;7.488;2023-05-23T03:16:31;5.45;;;4.47;;
25015;SDS011;13029;46.286;7.488;2023-05-23T03:18:57;6.93;;;4.63;;
25015;SDS011;13029;46.286;7.488;2023-05-23T03:21:22;6.13;;;4.60;;
25015;SDS011;13029;46.286;7.488;2023-05-23T03:23:47;6.88;;;4.40;;
25015;SDS011;13029;46.286;7.488;2023-05-23T03:26:14;5.10;;;4.38;;
25015;SDS011;13029;46.286;7.488;2023-05-23T03:28:39;5.40;;;4.07;;
25015;SDS011;13029;46.286;7.488;2023-05-23T03:31:04;11.20;;;5.57;;
25015;SDS011;13029;46.286;7.488;2023-05-23T03:33:30;6.10;;;4.47;;
25015;SDS011;13029;46.286;7.488;2023-05-23T03:35:55;7.70;;;4.75;;
25015;SDS011;13029;46.286;7.488;2023-05-23T03:38:21;6.72;;;4.05;;
25015;SDS011;13029;46.286;7.488;2023-05-23T03:40:46;7.68;;;4.57;;
25015;SDS011;13029;46.286;7.488;2023-05-23T03:43:12;7.00;;;4.45;;
25015;SDS011;13029;46.286;7.488;2023-05-23T03:45:37;5.05;;;4.53;;
25015;SDS011;13029;46.286;7.488;2023-05-23T03:48:03;8.63;;;4.45;;
25015;SDS011;13029;46.286;7.488;2023-05-23T03:50:28;7.50;;;4.97;;
25015;SDS011;13029;46.286;7.488;2023-05-23T03:52:54;6.85;;;4.15;;
25015;SDS011;13029;46.286;7.488;2023-05-23T03:55:20;6.90;;;4.60;;
25015;SDS011;13029;46.286;7.488;2023-05-23T03:57:47;5.97;;;4.03;;
25015;SDS011;13029;46.286;7.488;2023-05-23T04:00:12;5.90;;;4.43;;
25015;SDS011;13029;46.286;7.488;2023-05-23T04:02:38;4.80;;;4.07;;
25015;SDS011;13029;46.286;7.488;2023-05-23T04:05:04;8.90;;;4.10;;
25015;SDS011;13029;46.286;7.488;2023-05-23T04:07:30;5.78;;;4.50;;
25015;SDS011;13029;46.286;7.488;2023-05-23T04:09:58;7.43;;;4.70;;
25015;SDS011;13029;46.286;7.488;2023-05-23T04:12:24;5.85;;;4.32;;
25015;SDS011;13029;46.286;7.488;2023-05-23T04:14:49;5.43;;;4.15;;
25015;SDS011;13029;46.286;7.488;2023-05-23T04:17:15;7.32;;;4.82;;
25015;SDS011;13029;46.286;7.488;2023-05-23T04:19:40;8.18;;;5.40;;
25015;SDS011;13029;46.286;7.488;2023-05-23T04:22:05;6.40;;;4.65;;
25015;SDS011;13029;46.286;7.488;2023-05-23T04:24:31;8.68;;;4.90;;
25015;SDS011;13029;46.286;7.488;2023-05-23T04:26:56;6.25;;;4.65;;
25015;SDS011;13029;46.286;7.488;2023-05-23T04:29:23;9.70;;;4.70;;
25015;SDS011;13029;46.286;7.488;2023-05-23T04:31:50;7.05;;;4.80;;
25015;SDS011;13029;46.286;7.488;2023-05-23T04:34:15;5.97;;;4.20;;
25015;SDS011;13029;46.286;7.488;2023-05-23T04:36:41;7.40;;;4.55;;
25015;SDS011;13029;46.286;7.488;2023-05-23T04:39:08;8.25;;;4.85;;
25015;SDS011;13029;46.286;7.488;2023-05-23T04:41:34;6.38;;;4.35;;
25015;SDS011;13029;46.286;7.488;2023-05-23T04:44:00;6.03;;;4.43;;
25015;SDS011;13029;46.286;7.488;2023-05-23T04:46:26;6.75;;;4.53;;
25015;SDS011;13029;46.286;7.488;2023-05-23T04:48:54;6.35;;;4.45;;
25015;SDS011;13029;46.286;7.488;2023-05-23T04:51:20;6.50;;;5.03;;
25015;SDS011;13029;46.286;7.488;2023-05-23T04:53:46;5.00;;;4.50;;
25015;SDS011;13029;46.286;7.488;2023-05-23T04:56:13;5.10;;;4.35;;
25015;SDS011;13029;46.286;7.488;2023-05-23T04:58:39;5.15;;;4.43;;
25015;SDS011;13029;46.286;7.488;2023-05-23T05:01:06;7.50;;;4.47;;
25015;SDS011;13029;46.286;7.488;2023-05-23T05:03:33;6.35;;;4.85;;
25015;SDS011;13029;46.286;7.488;2023-05-23T05:05:58;7.55;;;4.65;;
25015;SDS011;13029;46.286;7.488;2023-05-23T05:08:24;6.18;;;4.68;;
25015;SDS011;13029;46.286;7.488;2023-05-23T05:10:50;7.40;;;4.97;;
25015;SDS011;13029;46.286;7.488;2023-05-23T05:13:15;8.82;;;4.75;;
25015;SDS011;13029;46.286;7.488;2023-05-23T05:15:40;9.95;;;5.00;;
25015;SDS011;13029;46.286;7.488;2023-05-23T05:18:06;8.10;;;4.50;;
25015;SDS011;13029;46.286;7.488;2023-05-23T05:20:31;8.75;;;5.43;;
25015;SDS011;13029;46.286;7.488;2023-05-23T05:22:57;8.48;;;5.05;;
25015;SDS011;13029;46.286;7.488;2023-05-23T05:25:22;10.45;;;5.15;;
25015;SDS011;13029;46.286;7.488;2023-05-23T05:27:48;11.77;;;5.18;;
25015;SDS011;13029;46.286;7.488;2023-05-23T05:30:13;11.13;;;5.20;;
25015;SDS011;13029;46.286;7.488;2023-05-23T05:32:39;7.28;;;5.13;;
25015;SDS011;13029;46.286;7.488;2023-05-23T05:35:06;8.68;;;5.50;;
25015;SDS011;13029;46.286;7.488;2023-05-23T05:37:32;5.53;;;4.80;;
25015;SDS011;13029;46.286;7.488;2023-05-23T05:39:57;8.63;;;5.47;;
25015;SDS011;13029;46.286;7.488;2023-05-23T05:42:23;8.60;;;5.18;;
25015;SDS011;13029;46.286;7.488;2023-05-23T05:44:48;6.18;;;4.93;;
25015;SDS011;13029;46.286;7.488;2023-05-23T05:47:14;9.73;;;4.88;;
25015;SDS011;13029;46.286;7.488;2023-05-23T05:49:40;6.32;;;4.68;;
25015;SDS011;13029;46.286;7.488;2023-05-23T05:52:05;6.78;;;4.97;;
25015;SDS011;13029;46.286;7.488;2023-05-23T05:54:31;7.28;;;4.80;;
25015;SDS011;13029;46.286;7.488;2023-05-23T05:56:57;5.15;;;4.53;;
25015;SDS011;13029;46.286;7.488;2023-05-23T05:59:22;5.80;;;5.07;;
25015;SDS011;13029;46.286;7.488;2023-05-23T06:01:47;6.57;;;4.65;;
25015;SDS011;13029;46.286;7.488;2023-05-23T06:04:15;6.15;;;4.68;;
25015;SDS011;13029;46.286;7.488;2023-05-23T06:06:40;6.65;;;4.60;;
25015;SDS011;13029;46.286;7.488;2023-05-23T06:09:06;7.88;;;4.97;;
25015;SDS011;13029;46.286;7.488;2023-05-23T06:11:31;9.65;;;4.80;;
25015;SDS011;13029;46.286;7.488;2023-05-23T06:13:56;8.23;;;5.10;;
25015;SDS011;13029;46.286;7.488;2023-05-23T06:16:22;7.40;;;5.15;;
25015;SDS011;13029;46.286;7.488;2023-05-23T06:18:47;8.27;;;4.90;;
25015;SDS011;13029;46.286;7.488;2023-05-23T06:21:12;8.50;;;4.85;;
25015;SDS011;13029;46.286;7.488;2023-05-23T06:23:37;5.07;;;4.22;;
25015;SDS011;13029;46.286;7.488;2023-05-23T06:26:03;5.05;;;4.55;;
25015;SDS011;13029;46.286;7.488;2023-05-23T06:28:31;9.65;;;4.57;;
25015;SDS011;13029;46.286;7.488;2023-05-23T06:30:57;11.38;;;4.57;;
25015;SDS011;13029;46.286;7.488;2023-05-23T06:33:22;11.45;;;5.47;;
25015;SDS011;13029;46.286;7.488;2023-05-23T06:35:48;6.63;;;4.43;;
25015;SDS011;13029;46.286;7.488;2023-05-23T06:38:13;8.45;;;5.22;;
25015;SDS011;13029;46.286;7.488;2023-05-23T06:40:38;9.32;;;5.88;;
25015;SDS011;13029;46.286;7.488;2023-05-23T06:43:05;7.40;;;4.93;;
25015;SDS011;13029;46.286;7.488;2023-05-23T06:45:30;6.20;;;4.53;;
25015;SDS011;13029;46.286;7.488;2023-05-23T06:47:55;8.75;;;5.32;;
25015;SDS011;13029;46.286;7.488;2023-05-23T06:50:21;8.25;;;4.70;;
25015;SDS011;13029;46.286;7.488;2023-05-23T06:52:46;5.90;;;5.10;;
25015;SDS011;13029;46.286;7.488;2023-05-23T06:55:11;6.10;;;4.70;;
25015;SDS011;13029;46.286;7.488;2023-05-23T06:57:42;6.18;;;5.10;;
25015;SDS011;13029;46.286;7.488;2023-05-23T07:00:07;7.22;;;5.10;;
25015;SDS011;13029;46.286;7.488;2023-05-23T07:02:34;5.78;;;4.93;;
25015;SDS011;13029;46.286;7.488;2023-05-23T07:04:59;5.82;;;4.40;;
25015;SDS011;13029;46.286;7.488;2023-05-23T07:07:24;7.55;;;5.03;;
25015;SDS011;13029;46.286;7.488;2023-05-23T07:09:50;8.90;;;4.97;;
25015;SDS011;13029;46.286;7.488;2023-05-23T07:12:15;8.80;;;4.80;;
25015;SDS011;13029;46.286;7.488;2023-05-23T07:14:40;8.18;;;4.68;;
25015;SDS011;13029;46.286;7.488;2023-05-23T07:17:06;9.13;;;5.25;;
25015;SDS011;13029;46.286;7.488;2023-05-23T07:19:31;5.63;;;5.03;;
25015;SDS011;13029;46.286;7.488;2023-05-23T07:21:56;7.97;;;4.75;;
25015;SDS011;13029;46.286;7.488;2023-05-23T07:24:22;6.63;;;4.93;;
25015;SDS011;13029;46.286;7.488;2023-05-23T07:26:47;9.02;;;5.13;;
25015;SDS011;13029;46.286;7.488;2023-05-23T07:29:12;7.55;;;4.80;;
25015;SDS011;13029;46.286;7.488;2023-05-23T07:31:38;6.05;;;4.85;;
25015;SDS011;13029;46.286;7.488;2023-05-23T07:34:03;12.55;;;5.13;;
25015;SDS011;13029;46.286;7.488;2023-05-23T07:36:28;5.45;;;4.63;;
25015;SDS011;13029;46.286;7.488;2023-05-23T07:38:57;9.88;;;4.95;;
25015;SDS011;13029;46.286;7.488;2023-05-23T07:41:23;11.05;;;4.93;;
25015;SDS011;13029;46.286;7.488;2023-05-23T07:43:48;11.70;;;5.63;;
25015;SDS011;13029;46.286;7.488;2023-05-23T07:46:13;7.22;;;4.90;;
25015;SDS011;13029;46.286;7.488;2023-05-23T07:48:39;7.50;;;5.22;;
25015;SDS011;13029;46.286;7.488;2023-05-23T07:51:04;8.10;;;5.30;;
25015;SDS011;13029;46.286;7.488;2023-05-23T07:53:29;13.07;;;4.85;;
25015;SDS011;13029;46.286;7.488;2023-05-23T07:55:55;6.70;;;5.10;;
25015;SDS011;13029;46.286;7.488;2023-05-23T07:58:20;8.77;;;5.60;;
25015;SDS011;13029;46.286;7.488;2023-05-23T08:00:47;8.50;;;5.45;;
25015;SDS011;13029;46.286;7.488;2023-05-23T08:03:12;5.90;;;4.70;;
25015;SDS011;13029;46.286;7.488;2023-05-23T08:05:38;9.18;;;5.28;;
25015;SDS011;13029;46.286;7.488;2023-05-23T08:08:03;7.32;;;4.60;;
25015;SDS011;13029;46.286;7.488;2023-05-23T08:10:28;7.72;;;5.00;;
25015;SDS011;13029;46.286;7.488;2023-05-23T08:12:54;5.72;;;4.80;;
25015;SDS011;13029;46.286;7.488;2023-05-23T08:15:19;10.82;;;5.20;;
25015;SDS011;13029;46.286;7.488;2023-05-23T08:17:47;7.53;;;5.20;;
25015;SDS011;13029;46.286;7.488;2023-05-23T08:20:12;7.60;;;5.32;;
25015;SDS011;13029;46.286;7.488;2023-05-23T08:22:38;9.32;;;4.85;;
25015;SDS011;13029;46.286;7.488;2023-05-23T08:25:04;10.07;;;5.47;;
25015;SDS011;13029;46.286;7.488;2023-05-23T08:27:30;8.65;;;5.25;;
25015;SDS011;13029;46.286;7.488;2023-05-23T08:29:55;9.13;;;5.32;;
25015;SDS011;13029;46.286;7.488;2023-05-23T08:32:21;8.13;;;5.20;;
25015;SDS011;13029;46.286;7.488;2023-05-23T08:34:46;7.78;;;5.22;;
25015;SDS011;13029;46.286;7.488;2023-05-23T08:37:11;10.18;;;5.35;;
25015;SDS011;13029;46.286;7.488;2023-05-23T08:39:36;5.90;;;4.80;;
25015;SDS011;13029;46.286;7.488;2023-05-23T08:42:02;11.07;;;5.32;;
25015;SDS011;13029;46.286;7.488;2023-05-23T08:44:27;7.10;;;5.13;;
25015;SDS011;13029;46.286;7.488;2023-05-23T08:46:52;6.47;;;4.57;;
25015;SDS011;13029;46.286;7.488;2023-05-23T08:49:18;6.47;;;4.60;;
25015;SDS011;13029;46.286;7.488;2023-05-23T08:51:44;9.40;;;5.18;;
25015;SDS011;13029;46.286;7.488;2023-05-23T08:54:10;7.07;;;4.97;;
25015;SDS011;13029;46.286;7.488;2023-05-23T08:56:37;7.85;;;4.40;;
25015;SDS011;13029;46.286;7.488;2023-05-23T08:59:02;8.23;;;4.53;;
25015;SDS011;13029;46.286;7.488;2023-05-23T09:01:28;10.27;;;5.07;;
25015;SDS011;13029;46.286;7.488;2023-05-23T09:03:54;9.55;;;5.18;;
25015;SDS011;13029;46.286;7.488;2023-05-23T09:06:20;20.65;;;5.10;;
25015;SDS011;13029;46.286;7.488;2023-05-23T09:08:45;5.75;;;4.60;;
25015;SDS011;13029;46.286;7.488;2023-05-23T09:11:11;8.98;;;4.53;;
25015;SDS011;13029;46.286;7.488;2023-05-23T09:13:37;7.32;;;4.43;;
25015;SDS011;13029;46.286;7.488;2023-05-23T09:16:04;5.60;;;4.78;;
25015;SDS011;13029;46.286;7.488;2023-05-23T09:18:41;9.52;;;5.00;;
25015;SDS011;13029;46.286;7.488;2023-05-23T09:21:07;9.25;;;5.30;;
25015;SDS011;13029;46.286;7.488;2023-05-23T09:23:34;11.40;;;4.85;;
25015;SDS011;13029;46.286;7.488;2023-05-23T09:26:00;8.13;;;5.03;;
25015;SDS011;13029;46.286;7.488;2023-05-23T09:28:27;6.82;;;4.07;;
25015;SDS011;13029;46.286;7.488;2023-05-23T09:31:02;8.07;;;4.70;;
25015;SDS011;13029;46.286;7.488;2023-05-23T09:36:02;8.77;;;4.82;;
25015;SDS011;13029;46.286;7.488;2023-05-23T09:38:28;6.68;;;4.45;;
25015;SDS011;13029;46.286;7.488;2023-05-23T09:40:53;8.68;;;4.60;;
25015;SDS011;13029;46.286;7.488;2023-05-23T09:43:20;9.95;;;4.78;;
25015;SDS011;13029;46.286;7.488;2023-05-23T09:45:45;8.32;;;4.50;;
25015;SDS011;13029;46.286;7.488;2023-05-23T09:48:11;9.45;;;4.88;;
25015;SDS011;13029;46.286;7.488;2023-05-23T09:50:37;6.43;;;4.47;;
25015;SDS011;13029;46.286;7.488;2023-05-23T09:53:03;5.95;;;4.72;;
25015;SDS011;13029;46.286;7.488;2023-05-23T09:55:28;9.00;;;4.88;;
25015;SDS011;13029;46.286;7.488;2023-05-23T09:57:54;7.32;;;5.18;;
25015;SDS011;13029;46.286;7.488;2023-05-23T10:00:22;13.65;;;5.30;;
25015;SDS011;13029;46.286;7.488;2023-05-23T10:05:47;8.68;;;5.57;;
25015;SDS011;13029;46.286;7.488;2023-05-23T10:08:15;7.50;;;5.25;;
25015;SDS011;13029;46.286;7.488;2023-05-23T10:13:20;9.82;;;4.93;;
25015;SDS011;13029;46.286;7.488;2023-05-23T10:15:47;6.45;;;4.85;;
25015;SDS011;13029;46.286;7.488;2023-05-23T10:18:17;8.52;;;5.90;;
25015;SDS011;13029;46.286;7.488;2023-05-23T10:20:46;8.27;;;5.28;;
25015;SDS011;13029;46.286;7.488;2023-05-23T10:23:13;5.72;;;4.80;;
25015;SDS011;13029;46.286;7.488;2023-05-23T10:25:40;9.75;;;5.00;;
25015;SDS011;13029;46.286;7.488;2023-05-23T10:28:06;11.07;;;5.00;;
25015;SDS011;13029;46.286;7.488;2023-05-23T10:30:31;9.43;;;5.15;;
25015;SDS011;13029;46.286;7.488;2023-05-23T10:32:58;7.22;;;4.47;;
25015;SDS011;13029;46.286;7.488;2023-05-23T10:41:21;6.38;;;4.47;;
25015;SDS011;13029;46.286;7.488;2023-05-23T10:43:51;9.32;;;5.20;;
25015;SDS011;13029;46.286;7.488;2023-05-23T10:46:20;5.28;;;4.75;;
25015;SDS011;13029;46.286;7.488;2023-05-23T10:48:46;7.43;;;5.07;;
25015;SDS011;13029;46.286;7.488;2023-05-23T10:51:12;6.50;;;4.70;;
25015;SDS011;13029;46.286;7.488;2023-05-23T10:53:42;7.00;;;5.30;;
25015;SDS011;13029;46.286;7.488;2023-05-23T10:56:10;6.30;;;4.53;;
25015;SDS011;13029;46.286;7.488;2023-05-23T10:58:43;5.90;;;4.65;;
25015;SDS011;13029;46.286;7.488;2023-05-23T11:01:09;8.57;;;4.60;;
25015;SDS011;13029;46.286;7.488;2023-05-23T11:14:31;6.95;;;4.53;;
25015;SDS011;13029;46.286;7.488;2023-05-23T11:16:56;9.98;;;5.10;;
25015;SDS011;13029;46.286;7.488;2023-05-23T11:19:24;10.82;;;5.03;;
25015;SDS011;13029;46.286;7.488;2023-05-23T11:24:16;5.27;;;4.73;;
25015;SDS011;13029;46.286;7.488;2023-05-23T11:26:50;10.32;;;4.60;;
25015;SDS011;13029;46.286;7.488;2023-05-23T11:29:24;11.50;;;4.80;;
25015;SDS011;13029;46.286;7.488;2023-05-23T11:31:50;6.35;;;4.60;;
25015;SDS011;13029;46.286;7.488;2023-05-23T11:34:16;10.52;;;4.38;;
25015;SDS011;13029;46.286;7.488;2023-05-23T11:36:42;7.90;;;4.47;;
25015;SDS011;13029;46.286;7.488;2023-05-23T11:39:07;22.73;;;4.78;;
25015;SDS011;13029;46.286;7.488;2023-05-23T11:41:33;10.52;;;4.53;;
25015;SDS011;13029;46.286;7.488;2023-05-23T11:43:59;18.13;;;4.40;;
25015;SDS011;13029;46.286;7.488;2023-05-23T11:46:25;11.18;;;4.28;;
25015;SDS011;13029;46.286;7.488;2023-05-23T11:48:51;7.20;;;4.15;;
25015;SDS011;13029;46.286;7.488;2023-05-23T11:51:17;5.43;;;4.30;;
25015;SDS011;13029;46.286;7.488;2023-05-23T11:53:43;6.22;;;4.28;;
25015;SDS011;13029;46.286;7.488;2023-05-23T11:56:09;8.02;;;4.20;;
25015;SDS011;13029;46.286;7.488;2023-05-23T11:58:35;7.07;;;3.67;;
25015;SDS011;13029;46.286;7.488;2023-05-23T12:01:02;12.57;;;4.13;;
25015;SDS011;13029;46.286;7.488;2023-05-23T12:03:29;19.83;;;4.72;;
25015;SDS011;13029;46.286;7.488;2023-05-23T12:05:55;26.35;;;5.20;;
25015;SDS011;13029;46.286;7.488;2023-05-23T12:08:21;13.65;;;4.13;;
25015;SDS011;13029;46.286;7.488;2023-05-23T12:10:56;5.93;;;4.43;;
25015;SDS011;13029;46.286;7.488;2023-05-23T12:13:23;6.50;;;3.72;;
25015;SDS011;13029;46.286;7.488;2023-05-23T12:15:51;4.30;;;3.83;;
25015;SDS011;13029;46.286;7.488;2023-05-23T12:18:18;4.55;;;3.80;;
25015;SDS011;13029;46.286;7.488;2023-05-23T12:20:44;6.00;;;3.70;;
25015;SDS011;13029;46.286;7.488;2023-05-23T12:23:16;7.60;;;4.03;;
25015;SDS011;13029;46.286;7.488;2023-05-23T12:25:42;7.45;;;3.92;;
25015;SDS011;13029;46.286;7.488;2023-05-23T12:28:08;8.75;;;4.57;;
25015;SDS011;13029;46.286;7.488;2023-05-23T12:30:40;7.25;;;4.22;;
25015;SDS011;13029;46.286;7.488;2023-05-23T12:33:07;19.35;;;6.18;;
25015;SDS011;13029;46.286;7.488;2023-05-23T12:35:32;9.23;;;3.97;;
25015;SDS011;13029;46.286;7.488;2023-05-23T12:37:58;7.38;;;4.38;;
25015;SDS011;13029;46.286;7.488;2023-05-23T12:40:23;12.68;;;4.13;;
25015;SDS011;13029;46.286;7.488;2023-05-23T12:42:49;4.35;;;3.38;;
25015;SDS011;13029;46.286;7.488;2023-05-23T12:45:18;10.50;;;4.07;;
25015;SDS011;13029;46.286;7.488;2023-05-23T12:48:02;6.00;;;3.80;;
25015;SDS011;13029;46.286;7.488;2023-05-23T12:50:28;6.18;;;3.70;;
25015;SDS011;13029;46.286;7.488;2023-05-23T12:52:54;5.57;;;3.42;;
25015;SDS011;13029;46.286;7.488;2023-05-23T12:55:20;7.82;;;3.92;;
25015;SDS011;13029;46.286;7.488;2023-05-23T12:57:45;6.15;;;3.70;;
25015;SDS011;13029;46.286;7.488;2023-05-23T13:00:11;4.63;;;3.88;;
25015;SDS011;13029;46.286;7.488;2023-05-23T13:02:37;5.05;;;3.83;;
25015;SDS011;13029;46.286;7.488;2023-05-23T13:05:03;7.22;;;3.67;;
25015;SDS011;13029;46.286;7.488;2023-05-23T13:07:28;4.50;;;3.80;;
25015;SDS011;13029;46.286;7.488;2023-05-23T13:09:54;5.97;;;3.88;;
25015;SDS011;13029;46.286;7.488;2023-05-23T13:12:19;6.40;;;4.10;;
25015;SDS011;13029;46.286;7.488;2023-05-23T13:14:45;6.57;;;3.88;;
25015;SDS011;13029;46.286;7.488;2023-05-23T13:17:10;7.20;;;4.03;;
25015;SDS011;13029;46.286;7.488;2023-05-23T13:19:36;24.08;;;5.35;;
25015;SDS011;13029;46.286;7.488;2023-05-23T13:22:01;5.57;;;4.05;;
25015;SDS011;13029;46.286;7.488;2023-05-23T13:24:28;5.15;;;4.15;;
25015;SDS011;13029;46.286;7.488;2023-05-23T13:26:53;7.15;;;4.07;;
25015;SDS011;13029;46.286;7.488;2023-05-23T13:29:19;6.20;;;3.90;;
25015;SDS011;13029;46.286;7.488;2023-05-23T13:31:44;5.32;;;4.35;;
25015;SDS011;13029;46.286;7.488;2023-05-23T13:34:10;12.05;;;4.20;;
25015;SDS011;13029;46.286;7.488;2023-05-23T13:36:35;5.80;;;3.65;;
25015;SDS011;13029;46.286;7.488;2023-05-23T13:39:01;6.68;;;3.88;;
25015;SDS011;13029;46.286;7.488;2023-05-23T13:41:26;5.28;;;4.05;;
25015;SDS011;13029;46.286;7.488;2023-05-23T13:43:52;4.85;;;3.85;;
25015;SDS011;13029;46.286;7.488;2023-05-23T13:46:17;5.93;;;3.55;;
25015;SDS011;13029;46.286;7.488;2023-05-23T13:48:42;4.50;;;4.00;;
25015;SDS011;13029;46.286;7.488;2023-05-23T13:51:09;4.70;;;3.75;;
25015;SDS011;13029;46.286;7.488;2023-05-23T13:53:34;5.65;;;4.10;;
25015;SDS011;13029;46.286;7.488;2023-05-23T13:55:59;10.13;;;4.15;;
25015;SDS011;13029;46.286;7.488;2023-05-23T13:58:25;4.20;;;3.80;;
25015;SDS011;13029;46.286;7.488;2023-05-23T14:00:51;4.55;;;4.15;;
25015;SDS011;13029;46.286;7.488;2023-05-23T14:03:16;9.60;;;4.00;;
25015;SDS011;13029;46.286;7.488;2023-05-23T14:05:43;5.10;;;4.25;;
25015;SDS011;13029;46.286;7.488;2023-05-23T14:08:08;5.05;;;4.00;;
25015;SDS011;13029;46.286;7.488;2023-05-23T14:10:35;5.32;;;4.50;;
25015;SDS011;13029;46.286;7.488;2023-05-23T14:13:00;13.95;;;4.10;;
25015;SDS011;13029;46.286;7.488;2023-05-23T14:15:26;8.02;;;3.85;;
25015;SDS011;13029;46.286;7.488;2023-05-23T14:17:52;6.78;;;3.85;;
25015;SDS011;13029;46.286;7.488;2023-05-23T14:20:19;6.40;;;3.70;;
25015;SDS011;13029;46.286;7.488;2023-05-23T14:22:45;3.60;;;3.30;;
25015;SDS011;13029;46.286;7.488;2023-05-23T14:25:11;5.25;;;3.53;;
25015;SDS011;13029;46.286;7.488;2023-05-23T14:27:37;4.82;;;3.40;;
25015;SDS011;13029;46.286;7.488;2023-05-23T14:30:02;3.67;;;3.05;;
25015;SDS011;13029;46.286;7.488;2023-05-23T14:32:28;8.05;;;3.70;;
25015;SDS011;13029;46.286;7.488;2023-05-23T14:34:54;10.02;;;3.58;;
25015;SDS011;13029;46.286;7.488;2023-05-23T14:37:19;5.95;;;3.20;;
25015;SDS011;13029;46.286;7.488;2023-05-23T14:39:44;5.40;;;3.13;;
25015;SDS011;13029;46.286;7.488;2023-05-23T14:42:10;5.45;;;3.50;;
25015;SDS011;13029;46.286;7.488;2023-05-23T14:44:35;8.13;;;3.10;;
25015;SDS011;13029;46.286;7.488;2023-05-23T14:47:00;9.95;;;2.90;;
25015;SDS011;13029;46.286;7.488;2023-05-23T14:49:26;6.85;;;3.22;;
25015;SDS011;13029;46.286;7.488;2023-05-23T14:51:51;3.78;;;3.03;;
25015;SDS011;13029;46.286;7.488;2023-05-23T14:54:16;9.13;;;3.00;;
25015;SDS011;13029;46.286;7.488;2023-05-23T14:56:42;5.15;;;2.95;;
25015;SDS011;13029;46.286;7.488;2023-05-23T14:59:07;5.45;;;2.90;;
25015;SDS011;13029;46.286;7.488;2023-05-23T15:01:32;4.25;;;2.72;;
25015;SDS011;13029;46.286;7.488;2023-05-23T15:03:58;3.83;;;2.80;;
25015;SDS011;13029;46.286;7.488;2023-05-23T15:06:23;3.42;;;2.85;;
25015;SDS011;13029;46.286;7.488;2023-05-23T15:08:48;6.00;;;3.28;;